createdAt,value
2019-01-22T00:00:57.481Z,100586.91
2019-01-22T00:03:24.257Z,100578.17
2019-01-22T00:05:51.019Z,100587.06
2019-01-22T00:08:17.796Z,100580.38
2019-01-22T00:10:44.564Z,100576.45
2019-01-22T00:13:11.333Z,100569.01
2019-01-22T00:15:38.096Z,100569.03
2019-01-22T00:18:04.890Z,100569.44
2019-01-22T00:20:31.704Z,100558.04
2019-01-22T00:23:02.822Z,100560.45
2019-01-22T00:25:25.245Z,100564.23
2019-01-22T00:27:52.001Z,100560.13
2019-01-22T00:30:18.804Z,100561.24
2019-01-22T00:32:45.578Z,100554.36
2019-01-22T00:35:12.335Z,100559.34
2019-01-22T00:37:39.377Z,100555.30
2019-01-22T00:40:07.985Z,100558.16
2019-01-22T00:42:34.743Z,100558.25
2019-01-22T00:45:01.526Z,100550.48
2019-01-22T00:47:28.285Z,100546.49
2019-01-22T00:49:55.040Z,100552.03
2019-01-22T00:52:21.803Z,100549.27
2019-01-22T00:54:48.592Z,100546.29
2019-01-22T00:57:15.341Z,100545.20
2019-01-22T00:59:42.115Z,100538.14
2019-01-22T01:02:08.888Z,100543.08
2019-01-22T01:04:35.662Z,100536.75
2019-01-22T01:07:02.445Z,100534.98
2019-01-22T01:09:29.208Z,100530.84
2019-01-22T01:11:55.968Z,100524.04
2019-01-22T01:14:22.745Z,100526.81
2019-01-22T01:16:49.501Z,100530.22
2019-01-22T01:19:16.279Z,100521.13
2019-01-22T01:21:43.078Z,100514.20
2019-01-22T01:24:09.852Z,100511.34
2019-01-22T01:26:36.613Z,100508.27
2019-01-22T01:29:03.392Z,100497.14
2019-01-22T01:31:30.157Z,100496.48
2019-01-22T01:33:56.904Z,100490.77
2019-01-22T01:36:23.659Z,100489.00
2019-01-22T01:38:50.428Z,100490.77
2019-01-22T01:41:17.189Z,100483.09
2019-01-22T01:43:43.965Z,100479.01
2019-01-22T01:46:10.727Z,100474.69
2019-01-22T01:48:37.488Z,100469.72
2019-01-22T01:51:04.296Z,100462.56
2019-01-22T01:53:31.081Z,100459.78
2019-01-22T01:55:57.828Z,100464.53
2019-01-22T01:58:24.590Z,100463.84
2019-01-22T02:00:51.396Z,100460.77
2019-01-22T02:03:18.150Z,100459.20
2019-01-22T02:05:44.925Z,100455.23
2019-01-22T02:08:11.677Z,100455.36
2019-01-22T02:10:38.940Z,100446.75
2019-01-22T02:13:09.695Z,100446.38
2019-01-22T02:15:45.928Z,100438.20
2019-01-22T02:18:32.604Z,100437.95
2019-01-22T02:21:24.988Z,100431.12
2019-01-22T02:24:04.972Z,100437.28
2019-01-22T02:27:00.421Z,100431.75
2019-01-22T02:29:37.868Z,100424.59
2019-01-22T02:32:28.243Z,100422.38
2019-01-22T02:35:26.353Z,100422.61
2019-01-22T02:38:22.680Z,100408.58
2019-01-22T02:41:03.312Z,100414.27
2019-01-22T02:43:56.492Z,100405.56
2019-01-22T02:46:33.510Z,100405.38
2019-01-22T02:49:20.617Z,100395.09
2019-01-22T02:52:13.433Z,100388.24
2019-01-22T02:54:50.325Z,100379.86
2019-01-22T02:57:42.316Z,100375.92
2019-01-22T03:00:53.041Z,100376.05
2019-01-22T03:03:35.488Z,100365.72
2019-01-22T03:06:22.993Z,100368.98
2019-01-22T03:09:29.736Z,100371.00
2019-01-22T03:12:06.006Z,100363.00
2019-01-22T03:14:52.620Z,100364.18
2019-01-22T03:17:31.381Z,100356.11
2019-01-22T03:20:08.781Z,100353.17
2019-01-22T03:23:03.448Z,100347.65
2019-01-22T03:25:47.675Z,100340.83
2019-01-22T03:28:33.944Z,100330.28
2019-01-22T03:31:28.662Z,100331.91
2019-01-22T03:34:11.580Z,100324.94
2019-01-22T03:37:02.667Z,100321.08
2019-01-22T03:39:52.286Z,100314.58
2019-01-22T03:43:00.931Z,100308.99
2019-01-22T03:45:56.654Z,100305.86
2019-01-22T03:48:37.921Z,100305.27
2019-01-22T03:51:19.516Z,100304.54
2019-01-22T03:53:57.724Z,100303.66
2019-01-22T03:56:34.812Z,100299.97
2019-01-22T03:59:01.574Z,100306.16
2019-01-22T04:01:30.325Z,100308.80
2019-01-22T04:03:57.100Z,100309.65
2019-01-22T04:06:31.062Z,100307.75
2019-01-22T04:09:00.669Z,100312.13
2019-01-22T04:11:32.958Z,100309.06
2019-01-22T04:13:59.725Z,100311.66
2019-01-22T04:16:26.518Z,100308.34
2019-01-22T04:18:53.265Z,100312.83
2019-01-22T04:21:23.084Z,100301.89
2019-01-22T04:24:02.028Z,100296.77
2019-01-22T04:26:43.164Z,100291.03
2019-01-22T04:29:35.914Z,100278.03
2019-01-22T04:32:14.613Z,100270.27
2019-01-22T04:34:51.856Z,100270.91
2019-01-22T04:37:48.524Z,100263.53
2019-01-22T04:40:25.835Z,100260.98
2019-01-22T04:43:29.824Z,100257.25
2019-01-22T04:46:31.328Z,100260.23
2019-01-22T04:49:09.522Z,100250.97
2019-01-22T04:51:58.492Z,100245.69
2019-01-22T04:54:34.962Z,100243.52
2019-01-22T04:57:11.841Z,100241.98
2019-01-22T04:59:52.870Z,100234.11
2019-01-22T05:02:43.264Z,100235.16
2019-01-22T05:05:20.993Z,100230.66
2019-01-22T05:08:05.882Z,100230.36
2019-01-22T05:10:47.865Z,100223.27
2019-01-22T05:13:46.142Z,100221.55
2019-01-22T05:16:37.164Z,100223.61
2019-01-22T05:19:32.743Z,100220.80
2019-01-22T05:22:18.873Z,100218.80
2019-01-22T05:25:18.968Z,100217.95
2019-01-22T05:28:16.905Z,100220.30
2019-01-22T05:30:55.165Z,100207.66
2019-01-22T05:33:33.328Z,100208.19
2019-01-22T05:36:26.229Z,100204.52
2019-01-22T05:39:10.834Z,100200.93
2019-01-22T05:41:49.216Z,100208.89
2019-01-22T05:44:32.444Z,100198.10
2019-01-22T05:47:39.576Z,100194.09
2019-01-22T05:50:31.708Z,100198.75
2019-01-22T05:53:19.397Z,100199.92
2019-01-22T05:55:46.821Z,100191.28
2019-01-22T05:58:38.284Z,100182.58
2019-01-22T06:01:13.996Z,100192.34
2019-01-22T06:04:03.189Z,100185.72
2019-01-22T06:07:10.301Z,100181.75
2019-01-22T06:10:10.136Z,100178.16
2019-01-22T06:13:05.705Z,100174.95
2019-01-22T06:15:49.430Z,100172.32
2019-01-22T06:18:24.990Z,100166.49
2019-01-22T06:21:19.613Z,100158.47
2019-01-22T06:23:59.046Z,100156.31
2019-01-22T06:26:35.265Z,100137.44
2019-01-22T06:29:42.221Z,100145.29
2019-01-22T06:32:36.157Z,100150.91
2019-01-22T06:35:15.554Z,100142.54
2019-01-22T06:37:53.259Z,100141.30
2019-01-22T06:40:46.950Z,100147.69
2019-01-22T06:43:29.701Z,100147.79
2019-01-22T06:46:13.900Z,100143.84
2019-01-22T06:48:57.632Z,100138.38
2019-01-22T06:51:52.021Z,100134.80
2019-01-22T06:54:44.260Z,100133.97
2019-01-22T06:57:52.065Z,100131.23
2019-01-22T07:00:49.480Z,100125.81
2019-01-22T07:03:38.228Z,100118.64
2019-01-22T07:06:22.518Z,100114.06
2019-01-22T07:09:22.133Z,100108.72
2019-01-22T07:12:32.494Z,100103.20
2019-01-22T07:15:28.326Z,100094.06
2019-01-22T07:18:13.293Z,100093.92
2019-01-22T07:21:09.758Z,100094.28
2019-01-22T07:24:06.725Z,100095.03
2019-01-22T07:26:44.580Z,100093.41
2019-01-22T07:29:35.486Z,100095.39
2019-01-22T07:32:12.289Z,100090.89
2019-01-22T07:35:02.298Z,100090.59
2019-01-22T07:37:51.918Z,100091.06
2019-01-22T07:40:51.852Z,100089.50
2019-01-22T07:43:25.833Z,100083.98
2019-01-22T07:46:11.577Z,100078.80
2019-01-22T07:48:46.992Z,100087.23
2019-01-22T07:51:26.965Z,100080.36
2019-01-22T07:54:12.552Z,100085.94
2019-01-22T07:56:47.316Z,100086.40
2019-01-22T07:59:37.924Z,100076.94
2019-01-22T08:02:30.816Z,100080.44
2019-01-22T08:05:09.824Z,100065.98
2019-01-22T08:07:57.704Z,100064.78
2019-01-22T08:10:38.728Z,100066.50
2019-01-22T08:13:25.250Z,100059.36
2019-01-22T08:16:09.152Z,100045.93
2019-01-22T08:18:53.842Z,100049.77
2019-01-22T08:21:30.620Z,100050.13
2019-01-22T08:24:08.604Z,100047.37
2019-01-22T08:26:53.570Z,100044.45
2019-01-22T08:29:53.605Z,100049.92
2019-01-22T08:33:02.576Z,100047.75
2019-01-22T08:35:48.608Z,100045.19
2019-01-22T08:38:33.397Z,100040.56
2019-01-22T08:41:39.400Z,100038.29
2019-01-22T08:44:37.670Z,100045.73
2019-01-22T08:47:16.057Z,100033.50
2019-01-22T08:50:11.533Z,100019.75
2019-01-22T08:53:00.180Z,100022.36
2019-01-22T08:55:41.169Z,100015.86
2019-01-22T08:58:37.224Z,100012.70
2019-01-22T09:01:35.643Z,100015.77
2019-01-22T09:04:29.982Z,100000.71
2019-01-22T09:07:12.970Z,100004.06
2019-01-22T09:10:13.568Z,100007.77
2019-01-22T09:12:55.938Z,100004.22
2019-01-22T09:15:40.415Z,100002.44
2019-01-22T09:18:34.445Z,99987.58
2019-01-22T09:21:22.107Z,99991.11
2019-01-22T09:23:57.130Z,99988.00
2019-01-22T09:27:04.071Z,99986.06
2019-01-22T09:30:01.482Z,99987.58
2019-01-22T09:32:59.045Z,99975.89
2019-01-22T09:35:51.349Z,99972.23
2019-01-22T09:38:18.144Z,99978.14
2019-01-22T09:40:44.901Z,99974.38
2019-01-22T09:43:11.676Z,99965.89
2019-01-22T09:45:38.553Z,99971.14
2019-01-22T09:48:05.310Z,99966.72
2019-01-22T09:50:32.138Z,99967.33
2019-01-22T09:52:58.899Z,99961.98
2019-01-22T09:55:25.683Z,99952.98
2019-01-22T09:57:52.427Z,99952.73
2019-01-22T10:00:19.214Z,99956.64
2019-01-22T10:02:45.977Z,99950.86
2019-01-22T10:05:12.757Z,99950.89
2019-01-22T10:07:39.520Z,99940.25
2019-01-22T10:10:09.859Z,99941.66
2019-01-22T10:12:36.627Z,99941.95
2019-01-22T10:15:04.346Z,99936.18
2019-01-22T10:17:31.124Z,99931.63
2019-01-22T10:19:57.904Z,99929.61
2019-01-22T10:22:24.656Z,99920.91
2019-01-22T10:24:51.429Z,99920.00
2019-01-22T10:27:18.216Z,99911.46
2019-01-22T10:29:44.996Z,99909.30
2019-01-22T10:32:11.768Z,99905.84
2019-01-22T10:34:38.511Z,99902.19
2019-01-22T10:37:05.301Z,99894.95
2019-01-22T10:39:32.083Z,99901.98
2019-01-22T10:41:58.897Z,99888.22
2019-01-22T10:44:25.649Z,99882.98
2019-01-22T10:46:52.448Z,99882.80
2019-01-22T10:49:19.224Z,99876.48
2019-01-22T10:51:46.009Z,99871.09
2019-01-22T10:54:12.781Z,99866.48
2019-01-22T10:56:39.554Z,99858.64
2019-01-22T10:59:06.507Z,99856.21
2019-01-22T11:01:34.253Z,99863.03
2019-01-22T11:04:01.037Z,99846.81
2019-01-22T11:06:27.858Z,99847.23
2019-01-22T11:08:54.648Z,99838.16
2019-01-22T11:11:21.445Z,99821.30
2019-01-22T11:13:48.229Z,99829.95
2019-01-22T11:16:15.170Z,99836.83
2019-01-22T11:18:41.802Z,99825.21
2019-01-22T11:21:08.613Z,99820.38
2019-01-22T11:23:35.402Z,99815.09
2019-01-22T11:26:02.208Z,99802.81
2019-01-22T11:28:29.011Z,99797.69
2019-01-22T11:30:55.801Z,99801.84
2019-01-22T11:33:22.568Z,99791.98
2019-01-22T11:35:49.365Z,99791.23
2019-01-22T11:38:16.141Z,99776.95
2019-01-22T11:40:45.088Z,99772.97
2019-01-22T11:43:11.889Z,99774.23
2019-01-22T11:45:38.676Z,99771.56
2019-01-22T11:48:07.097Z,99753.47
2019-01-22T11:50:33.893Z,99750.17
2019-01-22T11:53:00.786Z,99743.13
2019-01-22T11:55:27.553Z,99733.06
2019-01-22T11:57:54.362Z,99742.16
2019-01-22T12:00:29.053Z,99734.45
2019-01-22T12:02:55.862Z,99736.18
2019-01-22T12:05:22.652Z,99727.31
2019-01-22T12:07:49.446Z,99715.38
2019-01-22T12:10:16.220Z,99717.66
2019-01-22T12:12:43.040Z,99704.66
2019-01-22T12:15:11.833Z,99690.47
2019-01-22T12:17:38.621Z,99696.20
2019-01-22T12:20:09.669Z,99687.06
2019-01-22T12:22:36.466Z,99679.53
2019-01-22T12:25:03.877Z,99676.95
2019-01-22T12:27:30.689Z,99672.97
2019-01-22T12:29:57.458Z,99668.50
2019-01-22T12:32:24.265Z,99662.23
2019-01-22T12:34:51.029Z,99650.23
2019-01-22T12:37:17.866Z,99642.78
2019-01-22T12:39:44.631Z,99645.23
2019-01-22T12:42:11.462Z,99631.26
2019-01-22T12:44:38.231Z,99621.53
2019-01-22T12:47:05.031Z,99624.77
2019-01-22T12:49:31.797Z,99620.33
2019-01-22T12:51:58.584Z,99613.86
2019-01-22T12:54:25.364Z,99607.21
2019-01-22T12:56:52.137Z,99603.77
2019-01-22T12:59:18.884Z,99600.76
2019-01-22T13:01:45.661Z,99589.45
2019-01-22T13:04:12.450Z,99588.34
2019-01-22T13:06:39.212Z,99585.44
2019-01-22T13:09:06.785Z,99582.44
2019-01-22T13:11:33.601Z,99572.27
2019-01-22T13:14:00.375Z,99567.91
2019-01-22T13:16:27.164Z,99555.19
2019-01-22T13:18:53.998Z,99554.81
2019-01-22T13:21:22.829Z,99551.54
2019-01-22T13:23:49.661Z,99553.56
2019-01-22T13:26:16.434Z,99536.66
2019-01-22T13:28:43.223Z,99527.67
2019-01-22T13:31:12.005Z,99518.13
2019-01-22T13:33:38.825Z,99518.73
2019-01-22T13:36:05.611Z,99512.34
2019-01-22T13:38:32.408Z,99519.92
2019-01-22T13:40:59.195Z,99509.84
2019-01-22T13:43:27.086Z,99508.02
2019-01-22T13:45:53.886Z,99503.27
2019-01-22T13:48:22.277Z,99493.91
2019-01-22T13:50:49.068Z,99496.24
2019-01-22T13:53:15.857Z,99497.96
2019-01-22T13:55:42.633Z,99485.45
2019-01-22T13:58:09.446Z,99483.75
2019-01-22T14:00:36.228Z,99482.64
2019-01-22T14:03:03.066Z,99475.66
2019-01-22T14:05:29.874Z,99479.34
2019-01-22T14:07:56.723Z,99475.84
2019-01-22T14:10:23.498Z,99467.23
2019-01-22T14:12:50.298Z,99471.69
2019-01-22T14:15:20.418Z,99464.83
2019-01-22T14:17:47.231Z,99470.91
2019-01-22T14:20:14.194Z,99461.36
2019-01-22T14:22:40.994Z,99468.52
2019-01-22T14:25:09.475Z,99463.47
2019-01-22T14:27:36.321Z,99456.81
2019-01-22T14:30:04.027Z,99454.02
2019-01-22T14:32:42.427Z,99456.69
2019-01-22T14:35:09.250Z,99450.74
2019-01-22T14:37:36.080Z,99450.27
2019-01-22T14:40:02.873Z,99444.42
2019-01-22T14:42:29.673Z,99438.80
2019-01-22T14:44:56.449Z,99441.22
2019-01-22T14:47:23.226Z,99433.50
2019-01-22T14:49:50.018Z,99432.97
2019-01-22T14:52:16.854Z,99425.59
2019-01-22T14:54:43.657Z,99412.92
2019-01-22T14:57:13.815Z,99420.18
2019-01-22T14:59:40.621Z,99412.77
2019-01-22T15:02:07.431Z,99411.31
2019-01-22T15:04:35.257Z,99407.27
2019-01-22T15:07:02.063Z,99406.47
2019-01-22T15:09:28.877Z,99396.27
2019-01-22T15:11:55.653Z,99399.30
2019-01-22T15:14:22.597Z,99378.47
2019-01-22T15:16:49.458Z,99374.94
2019-01-22T15:19:16.232Z,99363.08
2019-01-22T15:21:42.996Z,99360.41
2019-01-22T15:24:10.128Z,99363.98
2019-01-22T15:26:39.561Z,99351.16
2019-01-22T15:29:04.026Z,99359.97
2019-01-22T15:31:30.888Z,99341.02
2019-01-22T15:33:58.133Z,99341.05
2019-01-22T15:36:27.206Z,99344.11
2019-01-22T15:38:54.883Z,99343.72
2019-01-22T15:41:28.626Z,99340.55
2019-01-22T15:43:55.570Z,99329.95
2019-01-22T15:46:22.944Z,99335.39
2019-01-22T15:48:50.063Z,99318.41
2019-01-22T15:51:16.858Z,99324.04
2019-01-22T15:53:43.697Z,99317.67
2019-01-22T15:56:10.553Z,99312.03
2019-01-22T15:58:37.492Z,99314.81
2019-01-22T16:01:04.309Z,99314.36
2019-01-22T16:03:31.220Z,99321.38
2019-01-22T16:05:58.094Z,99315.98
2019-01-22T16:08:24.898Z,99314.13
2019-01-22T16:10:51.897Z,99324.59
2019-01-22T16:13:18.908Z,99314.81
2019-01-22T16:15:45.737Z,99322.66
2019-01-22T16:18:12.653Z,99317.22
2019-01-22T16:20:39.453Z,99316.50
2019-01-22T16:23:07.314Z,99323.82
2019-01-22T16:25:34.085Z,99315.94
2019-01-22T16:28:00.943Z,99318.91
2019-01-22T16:30:29.913Z,99319.88
2019-01-22T16:32:56.764Z,99314.41
2019-01-22T16:35:24.985Z,99319.05
2019-01-22T16:37:52.062Z,99309.65
2019-01-22T16:40:18.863Z,99302.53
2019-01-22T16:42:45.928Z,99301.41
2019-01-22T16:45:34.119Z,99302.55
2019-01-22T16:48:00.965Z,99302.22
2019-01-22T16:50:29.684Z,99299.99
2019-01-22T16:52:56.497Z,99298.80
2019-01-22T16:55:26.480Z,99303.40
2019-01-22T16:57:53.386Z,99291.17
2019-01-22T17:00:22.819Z,99291.18
2019-01-22T17:02:49.645Z,99292.72
2019-01-22T17:05:16.537Z,99289.16
2019-01-22T17:07:43.374Z,99281.73
2019-01-22T17:10:11.888Z,99283.46
2019-01-22T17:12:38.693Z,99280.21
2019-01-22T17:15:06.462Z,99275.48
2019-01-22T17:17:33.306Z,99279.18
2019-01-22T17:20:00.153Z,99270.84
2019-01-22T17:22:26.963Z,99268.39
2019-01-22T17:24:53.799Z,99271.44
2019-01-22T17:27:20.577Z,99266.28
2019-01-22T17:29:47.374Z,99257.66
2019-01-22T17:32:23.281Z,99250.92
2019-01-22T17:34:52.250Z,99252.08
2019-01-22T17:37:22.166Z,99247.97
2019-01-22T17:39:48.997Z,99244.17
2019-01-22T17:42:15.838Z,99239.70
2019-01-22T17:44:42.652Z,99235.41
2019-01-22T17:47:09.640Z,99234.34
2019-01-22T17:49:37.580Z,99217.63
2019-01-22T17:52:04.504Z,99216.13
2019-01-22T17:54:31.313Z,99225.13
2019-01-22T17:56:59.177Z,99219.89
2019-01-22T17:59:26.017Z,99213.22
2019-01-22T18:01:52.838Z,99202.47
2019-01-22T18:04:20.637Z,99207.53
2019-01-22T18:06:47.472Z,99211.11
2019-01-22T18:09:16.312Z,99207.97
2019-01-22T18:11:43.097Z,99204.09
2019-01-22T18:14:09.964Z,99199.80
2019-01-22T18:16:36.778Z,99194.70
2019-01-22T18:19:03.753Z,99183.02
2019-01-22T18:21:30.545Z,99186.08
2019-01-22T18:23:57.362Z,99185.61
2019-01-22T18:26:24.165Z,99186.78
2019-01-22T18:28:50.969Z,99180.78
2019-01-22T18:31:17.800Z,99179.50
2019-01-22T18:33:44.637Z,99176.77
2019-01-22T18:36:11.485Z,99174.05
2019-01-22T18:38:38.290Z,99176.02
2019-01-22T18:41:05.124Z,99168.94
2019-01-22T18:43:31.937Z,99165.22
2019-01-22T18:45:58.781Z,99173.30
2019-01-22T18:48:25.588Z,99164.39
2019-01-22T18:50:52.669Z,99158.33
2019-01-22T18:53:19.461Z,99162.59
2019-01-22T18:55:46.301Z,99158.43
2019-01-22T18:58:15.213Z,99158.02
2019-01-22T19:00:42.021Z,99162.56
2019-01-22T19:03:08.821Z,99153.47
2019-01-22T19:05:35.662Z,99149.38
2019-01-22T19:08:09.094Z,99150.41
2019-01-22T19:10:35.701Z,99146.52
2019-01-22T19:13:02.645Z,99139.92
2019-01-22T19:15:30.265Z,99143.72
2019-01-22T19:17:57.327Z,99137.41
2019-01-22T19:20:24.390Z,99136.97
2019-01-22T19:22:51.321Z,99136.23
2019-01-22T19:25:20.304Z,99124.55
2019-01-22T19:27:47.605Z,99129.40
2019-01-22T19:30:16.737Z,99122.45
2019-01-22T19:32:44.027Z,99124.42
2019-01-22T19:35:11.362Z,99119.50
2019-01-22T19:37:38.539Z,99118.30
2019-01-22T19:40:07.444Z,99116.23
2019-01-22T19:42:34.508Z,99108.36
2019-01-22T19:45:01.318Z,99104.53
2019-01-22T19:47:28.349Z,99098.77
2019-01-22T19:49:55.124Z,99096.16
2019-01-22T19:52:21.940Z,99102.45
2019-01-22T19:54:48.722Z,99097.19
2019-01-22T19:57:15.515Z,99093.06
2019-01-22T19:59:42.314Z,99088.08
2019-01-22T20:02:09.120Z,99084.14
2019-01-22T20:04:35.951Z,99081.85
2019-01-22T20:07:02.785Z,99086.13
2019-01-22T20:09:29.557Z,99086.33
2019-01-22T20:11:56.362Z,99083.17
2019-01-22T20:14:23.150Z,99086.27
2019-01-22T20:16:49.963Z,99080.31
2019-01-22T20:19:16.786Z,99088.67
2019-01-22T20:21:43.601Z,99081.72
2019-01-22T20:24:10.377Z,99083.48
2019-01-22T20:26:37.219Z,99075.63
2019-01-22T20:29:04.053Z,99073.14
2019-01-22T20:31:30.886Z,99079.50
2019-01-22T20:33:57.701Z,99075.67
2019-01-22T20:36:24.609Z,99069.92
2019-01-22T20:38:51.521Z,99068.36
2019-01-22T20:41:18.323Z,99065.27
2019-01-22T20:43:45.110Z,99063.87
2019-01-22T20:46:11.911Z,99066.46
2019-01-22T20:48:38.753Z,99059.88
2019-01-22T20:51:05.585Z,99055.88
2019-01-22T20:53:32.373Z,99062.57
2019-01-22T20:55:59.224Z,99059.70
2019-01-22T20:58:26.013Z,99058.88
2019-01-22T21:00:52.881Z,99057.89
2019-01-22T21:03:19.714Z,99057.62
2019-01-22T21:05:46.529Z,99052.97
2019-01-22T21:08:13.440Z,99058.17
2019-01-22T21:10:40.231Z,99052.93
2019-01-22T21:13:07.047Z,99052.08
2019-01-22T21:15:33.856Z,99046.02
2019-01-22T21:18:00.653Z,99044.23
2019-01-22T21:20:27.553Z,99037.05
2019-01-22T21:22:59.135Z,99044.42
2019-01-22T21:25:25.945Z,99036.70
2019-01-22T21:27:52.762Z,99035.92
2019-01-22T21:30:25.366Z,99035.15
2019-01-22T21:32:52.182Z,99034.30
2019-01-22T21:35:18.997Z,99032.61
2019-01-22T21:37:45.809Z,99029.75
2019-01-22T21:40:12.621Z,99027.25
2019-01-22T21:42:39.449Z,99024.89
2019-01-22T21:45:08.975Z,99024.08
2019-01-22T21:47:35.741Z,99020.45
2019-01-22T21:50:02.769Z,99018.91
2019-01-22T21:52:29.560Z,99013.02
2019-01-22T21:54:56.376Z,99015.47
2019-01-22T21:57:23.193Z,99007.00
2019-01-22T21:59:49.993Z,99000.13
2019-01-22T22:02:16.851Z,99000.77
2019-01-22T22:04:43.637Z,98997.72
2019-01-22T22:07:10.434Z,98999.95
2019-01-22T22:09:37.201Z,99000.70
2019-01-22T22:12:04.008Z,99003.41
2019-01-22T22:14:30.792Z,98999.91
2019-01-22T22:16:57.585Z,98999.48
2019-01-22T22:19:24.349Z,98994.63
2019-01-22T22:21:51.120Z,99000.27
2019-01-22T22:24:17.884Z,98990.99
2019-01-22T22:26:44.701Z,98992.22
2019-01-22T22:29:11.444Z,98980.30
2019-01-22T22:31:38.198Z,98974.43
2019-01-22T22:34:04.977Z,98971.53
2019-01-22T22:36:31.745Z,98965.82
2019-01-22T22:38:58.545Z,98965.92
2019-01-22T22:41:25.310Z,98972.06
2019-01-22T22:43:52.154Z,98965.56
2019-01-22T22:46:18.913Z,98958.86
2019-01-22T22:48:45.700Z,98961.04
2019-01-22T22:51:12.505Z,98959.88
2019-01-22T22:53:39.277Z,98957.38
2019-01-22T22:56:06.049Z,98952.97
2019-01-22T22:58:32.841Z,98953.99
2019-01-22T23:01:23.673Z,98946.09
2019-01-22T23:03:50.492Z,98943.63
2019-01-22T23:06:17.265Z,98939.51
2019-01-22T23:08:44.049Z,98934.65
2019-01-22T23:11:10.829Z,98929.66
2019-01-22T23:13:37.613Z,98923.03
2019-01-22T23:16:04.407Z,98921.73
2019-01-22T23:18:31.201Z,98922.19
2019-01-22T23:20:57.978Z,98917.51
2019-01-22T23:23:24.756Z,98917.39
2019-01-22T23:25:51.513Z,98911.64
2019-01-22T23:28:18.320Z,98911.34
2019-01-22T23:30:45.105Z,98907.08
2019-01-22T23:33:11.893Z,98899.99
2019-01-22T23:35:38.751Z,98893.48
2019-01-22T23:38:05.526Z,98888.70
2019-01-22T23:40:32.312Z,98892.53
2019-01-22T23:42:59.124Z,98880.23
2019-01-22T23:45:25.925Z,98882.64
2019-01-22T23:47:52.764Z,98877.62
2019-01-22T23:50:19.619Z,98876.09
2019-01-22T23:52:46.413Z,98873.10
2019-01-22T23:55:13.204Z,98872.69
2019-01-22T23:57:40.060Z,98870.89
